createdAt,value
2022-08-07T00:00:51.592Z,4.00
2022-08-07T00:03:18.315Z,4.10
2022-08-07T00:05:45.457Z,3.95
2022-08-07T00:08:14.418Z,4.30
2022-08-07T00:10:47.930Z,4.00
2022-08-07T00:13:24.038Z,3.85
2022-08-07T00:15:53.252Z,4.00
2022-08-07T00:18:24.458Z,3.87
2022-08-07T00:21:01.494Z,4.10
2022-08-07T00:23:30.421Z,4.20
2022-08-07T00:25:59.303Z,3.87
2022-08-07T00:28:33.807Z,4.13
2022-08-07T00:31:05.949Z,4.10
2022-08-07T00:33:33.840Z,4.10
2022-08-07T00:36:00.523Z,4.15
2022-08-07T00:38:30.932Z,4.10
2022-08-07T00:40:59.202Z,3.90
2022-08-07T00:44:00.726Z,4.30
2022-08-07T00:46:14.374Z,3.90
2022-08-07T00:48:42.013Z,4.27
2022-08-07T00:51:10.306Z,4.10
2022-08-07T00:53:38.954Z,4.07
2022-08-07T00:56:17.243Z,4.07
2022-08-07T00:58:46.864Z,4.10
2022-08-07T01:01:17.543Z,4.10
2022-08-07T01:03:55.707Z,4.25
2022-08-07T01:06:28.352Z,3.97
2022-08-07T01:08:56.219Z,4.50
2022-08-07T01:12:04.735Z,4.20
2022-08-07T01:14:10.796Z,4.20
2022-08-07T01:16:37.754Z,4.15
2022-08-07T01:19:10.916Z,4.40
2022-08-07T01:21:47.208Z,4.17
2022-08-07T01:24:21.423Z,4.07
2022-08-07T01:26:51.902Z,4.20
2022-08-07T01:29:19.606Z,4.30
2022-08-07T01:31:48.625Z,4.07
2022-08-07T01:34:17.797Z,4.18
2022-08-07T01:36:52.947Z,4.28
2022-08-07T01:39:41.322Z,4.20
2022-08-07T01:42:40.136Z,4.10
2022-08-07T01:45:03.460Z,4.30
2022-08-07T01:48:19.336Z,4.25
2022-08-07T01:50:17.198Z,4.20
2022-08-07T01:52:58.769Z,4.10
2022-08-07T01:55:34.129Z,4.20
2022-08-07T01:58:06.743Z,4.20
2022-08-07T02:01:09.713Z,4.43
2022-08-07T02:03:50.221Z,4.47
2022-08-07T02:06:31.809Z,4.60
2022-08-07T02:09:03.584Z,4.20
2022-08-07T02:12:02.876Z,4.40
2022-08-07T02:14:35.970Z,4.10
2022-08-07T02:17:07.866Z,4.03
2022-08-07T02:20:07.267Z,4.40
2022-08-07T02:22:26.134Z,4.13
2022-08-07T02:24:57.430Z,4.40
2022-08-07T02:27:26.185Z,4.13
2022-08-07T02:30:07.311Z,4.50
2022-08-07T02:32:39.477Z,4.30
2022-08-07T02:36:26.945Z,4.40
2022-08-07T02:38:14.633Z,4.40
2022-08-07T02:40:44.235Z,4.30
2022-08-07T02:43:15.843Z,4.10
2022-08-07T02:45:59.379Z,4.40
2022-08-07T02:48:29.419Z,4.25
2022-08-07T02:50:58.769Z,4.20
2022-08-07T02:53:34.074Z,4.45
2022-08-07T02:56:17.499Z,4.50
2022-08-07T02:58:51.288Z,4.20
2022-08-07T03:01:35.961Z,4.20
2022-08-07T03:04:12.773Z,4.35
2022-08-07T03:06:42.135Z,4.40
2022-08-07T03:09:11.788Z,4.25
2022-08-07T03:11:52.406Z,4.30
2022-08-07T03:14:26.180Z,4.20
2022-08-07T03:16:55.643Z,5.18
2022-08-07T03:19:23.298Z,4.45
2022-08-07T03:21:51.215Z,4.72
2022-08-07T03:24:25.961Z,4.32
2022-08-07T03:26:58.965Z,4.40
2022-08-07T03:29:31.916Z,4.40
2022-08-07T03:32:05.124Z,4.25
2022-08-07T03:34:39.518Z,4.40
2022-08-07T03:37:27.639Z,4.40
2022-08-07T03:40:13.265Z,4.38
2022-08-07T03:42:42.223Z,4.50
2022-08-07T03:45:11.186Z,4.68
2022-08-07T03:47:48.150Z,4.55
2022-08-07T03:50:23.024Z,4.40
2022-08-07T03:52:52.465Z,4.93
2022-08-07T03:55:19.242Z,4.22
2022-08-07T03:58:34.647Z,4.47
2022-08-07T04:00:35.595Z,4.30
2022-08-07T04:03:04.977Z,4.45
2022-08-07T04:05:40.603Z,4.30
2022-08-07T04:08:16.124Z,4.40
2022-08-07T04:10:53.845Z,4.80
2022-08-07T04:14:10.680Z,4.40
2022-08-07T04:16:31.597Z,4.47
2022-08-07T04:19:01.669Z,4.45
2022-08-07T04:21:33.449Z,4.55
2022-08-07T04:24:06.059Z,4.60
2022-08-07T04:26:34.758Z,4.25
2022-08-07T04:29:03.166Z,4.70
2022-08-07T04:31:38.805Z,4.60
2022-08-07T04:34:24.215Z,4.30
2022-08-07T04:36:54.697Z,4.50
2022-08-07T04:39:25.884Z,4.30
2022-08-07T04:41:52.970Z,4.40
2022-08-07T04:44:20.291Z,4.50
2022-08-07T04:47:23.526Z,4.30
2022-08-07T04:50:13.995Z,4.70
2022-08-07T04:52:53.538Z,4.38
2022-08-07T04:58:12.971Z,4.70
2022-08-07T04:59:09.073Z,4.70
2022-08-07T05:01:54.392Z,4.47
2022-08-07T05:04:47.066Z,4.40
2022-08-07T05:07:30.699Z,4.43
2022-08-07T05:10:16.263Z,4.30
2022-08-07T05:12:59.951Z,4.40
2022-08-07T05:15:35.998Z,4.38
2022-08-07T05:18:09.275Z,4.50
2022-08-07T05:20:53.633Z,4.40
2022-08-07T05:23:36.638Z,4.60
2022-08-07T05:26:13.071Z,4.50
2022-08-07T05:28:48.420Z,4.60
2022-08-07T05:31:19.098Z,4.50
2022-08-07T05:34:01.479Z,4.45
2022-08-07T05:36:35.710Z,4.35
2022-08-07T05:40:05.472Z,4.43
2022-08-07T05:42:02.583Z,4.20
2022-08-07T05:44:35.267Z,4.38
2022-08-07T05:47:18.424Z,4.45
2022-08-07T05:49:49.784Z,4.40
2022-08-07T05:52:29.765Z,4.32
2022-08-07T05:54:58.689Z,4.20
2022-08-07T05:57:34.654Z,4.40
2022-08-07T06:00:08.921Z,4.38
2022-08-07T06:02:47.646Z,4.35
2022-08-07T06:05:15.717Z,4.60
2022-08-07T06:08:14.949Z,4.45
2022-08-07T06:10:30.446Z,4.50
2022-08-07T06:12:57.250Z,4.50
2022-08-07T06:15:38.983Z,3.95
2022-08-07T06:18:12.063Z,4.72
2022-08-07T06:20:50.790Z,4.40
2022-08-07T06:24:38.150Z,4.18
2022-08-07T06:26:15.106Z,4.20
2022-08-07T06:28:57.068Z,4.10
2022-08-07T06:31:47.252Z,4.07
2022-08-07T06:34:13.585Z,3.70
2022-08-07T06:36:41.699Z,3.57
2022-08-07T06:40:17.322Z,3.43
2022-08-07T06:42:06.117Z,3.83
2022-08-07T06:44:36.868Z,2.93
2022-08-07T06:47:10.577Z,2.73
2022-08-07T06:49:50.949Z,2.57
2022-08-07T06:52:31.727Z,2.47
2022-08-07T06:55:33.271Z,2.23
2022-08-07T06:58:10.292Z,2.00
2022-08-07T07:00:39.906Z,2.00
2022-08-07T07:03:13.972Z,2.00
2022-08-07T07:06:03.343Z,1.87
2022-08-07T07:08:33.513Z,1.90
2022-08-07T07:11:14.460Z,2.00
2022-08-07T07:13:58.044Z,1.70
2022-08-07T07:16:39.172Z,1.60
2022-08-07T07:19:57.068Z,1.80
2022-08-07T07:22:11.900Z,1.77
2022-08-07T07:25:03.053Z,1.60
2022-08-07T07:28:29.829Z,1.80
2022-08-07T07:31:02.283Z,1.70
2022-08-07T07:33:32.577Z,1.83
2022-08-07T07:36:05.498Z,2.00
2022-08-07T07:38:41.740Z,1.90
2022-08-07T07:41:16.396Z,1.90
2022-08-07T07:44:13.808Z,2.00
2022-08-07T07:46:54.162Z,2.17
2022-08-07T07:50:35.275Z,2.20
2022-08-07T07:52:15.753Z,2.50
2022-08-07T07:54:50.487Z,2.30
2022-08-07T07:57:43.634Z,2.20
2022-08-07T08:00:09.215Z,2.60
2022-08-07T08:03:01.203Z,2.40
2022-08-07T08:05:32.197Z,2.90
2022-08-07T08:08:35.776Z,2.90
2022-08-07T08:10:59.531Z,2.50
2022-08-07T08:13:36.529Z,2.63
2022-08-07T08:16:14.431Z,2.40
2022-08-07T08:18:45.986Z,2.50
2022-08-07T08:22:00.567Z,2.60
2022-08-07T08:24:44.805Z,2.50
2022-08-07T08:27:16.640Z,2.67
2022-08-07T08:29:56.217Z,2.60
2022-08-07T08:32:38.554Z,2.57
2022-08-07T08:35:12.195Z,2.93
2022-08-07T08:38:00.257Z,2.70
2022-08-07T08:40:35.859Z,2.70
2022-08-07T08:43:16.006Z,2.63
2022-08-07T08:45:59.291Z,2.57
2022-08-07T08:48:44.778Z,2.50
2022-08-07T08:52:12.935Z,2.53
2022-08-07T08:54:26.390Z,2.60
2022-08-07T08:56:54.679Z,3.30
2022-08-07T08:59:41.982Z,2.60
2022-08-07T09:02:36.386Z,2.60
2022-08-07T09:05:42.979Z,2.70
2022-08-07T09:08:29.029Z,2.47
2022-08-07T09:11:25.025Z,2.63
2022-08-07T09:14:16.538Z,2.70
2022-08-07T09:16:47.616Z,2.40
2022-08-07T09:19:44.637Z,2.63
2022-08-07T09:24:53.610Z,2.40
2022-08-07T09:26:10.653Z,2.63
2022-08-07T09:30:01.766Z,2.33
2022-08-07T09:31:49.566Z,2.50
2022-08-07T09:34:26.286Z,2.30
2022-08-07T09:37:47.977Z,2.40
2022-08-07T09:40:28.866Z,2.57
2022-08-07T09:44:03.666Z,2.30
2022-08-07T09:47:52.063Z,2.40
2022-08-07T09:50:01.911Z,2.83
2022-08-07T09:52:48.649Z,2.23
2022-08-07T09:55:29.886Z,2.47
2022-08-07T09:58:20.862Z,2.30
2022-08-07T10:01:52.294Z,2.23
2022-08-07T10:04:32.349Z,2.30
2022-08-07T10:07:55.245Z,2.37
2022-08-07T10:11:16.550Z,2.30
2022-08-07T10:14:01.360Z,2.40
2022-08-07T10:17:02.809Z,2.13
2022-08-07T10:20:01.220Z,2.20
2022-08-07T10:22:36.855Z,2.23
2022-08-07T10:25:42.502Z,2.30
2022-08-07T10:28:34.905Z,2.20
2022-08-07T10:31:28.461Z,2.60
2022-08-07T10:34:18.143Z,2.30
2022-08-07T10:37:48.170Z,2.20
2022-08-07T10:40:18.109Z,2.40
2022-08-07T10:43:15.342Z,2.27
2022-08-07T10:45:58.128Z,2.00
2022-08-07T10:48:36.050Z,2.00
2022-08-07T10:51:16.757Z,2.30
2022-08-07T10:54:23.784Z,1.80
2022-08-07T10:57:11.506Z,2.57
2022-08-07T11:00:03.614Z,2.10
2022-08-07T11:02:48.993Z,2.20
2022-08-07T11:05:50.994Z,1.90
2022-08-07T11:08:45.758Z,1.80
2022-08-07T11:11:25.665Z,2.10
2022-08-07T11:14:43.774Z,2.10
2022-08-07T11:16:51.322Z,2.00
2022-08-07T11:19:42.734Z,1.90
2022-08-07T11:22:42.725Z,1.90
2022-08-07T11:25:42.523Z,1.97
2022-08-07T11:28:18.496Z,1.83
2022-08-07T11:31:08.673Z,2.00
2022-08-07T11:34:17.033Z,1.90
2022-08-07T11:37:05.029Z,1.90
2022-08-07T11:40:00.673Z,1.90
2022-08-07T11:42:37.451Z,2.20
2022-08-07T11:45:37.091Z,1.90
2022-08-07T11:48:29.669Z,1.93
2022-08-07T11:51:44.512Z,1.90
2022-08-07T11:54:34.926Z,1.93
2022-08-07T11:58:00.225Z,2.30
2022-08-07T12:00:19.099Z,2.10
2022-08-07T12:03:03.686Z,2.10
2022-08-07T12:05:59.457Z,2.03
2022-08-07T12:08:45.591Z,2.00
2022-08-07T12:12:10.450Z,1.83
2022-08-07T12:15:01.272Z,2.03
2022-08-07T12:17:39.981Z,1.80
2022-08-07T12:21:20.959Z,1.93
2022-08-07T12:24:07.006Z,2.00
2022-08-07T12:27:15.819Z,2.00
2022-08-07T12:29:59.412Z,2.20
2022-08-07T12:32:52.412Z,1.87
2022-08-07T12:35:20.665Z,1.90
2022-08-07T12:38:10.318Z,2.07
2022-08-07T12:40:47.384Z,2.07
2022-08-07T12:44:02.485Z,2.23
2022-08-07T12:46:26.454Z,2.00
2022-08-07T12:49:40.244Z,1.90
2022-08-07T12:52:18.097Z,2.00
2022-08-07T12:55:05.133Z,1.80
2022-08-07T12:57:59.237Z,2.20
2022-08-07T13:00:41.766Z,2.00
2022-08-07T13:03:59.055Z,2.00
2022-08-07T13:07:01.679Z,1.90
2022-08-07T13:10:18.871Z,1.90
2022-08-07T13:12:53.743Z,1.93
2022-08-07T13:15:29.724Z,2.10
2022-08-07T13:18:30.706Z,2.03
2022-08-07T13:21:09.514Z,1.80
2022-08-07T13:24:11.520Z,1.90
2022-08-07T13:26:53.877Z,2.00
2022-08-07T13:29:34.613Z,1.90
2022-08-07T13:32:37.628Z,2.40
2022-08-07T13:36:00.765Z,1.97
2022-08-07T13:38:49.672Z,1.90
2022-08-07T13:41:27.975Z,1.70
2022-08-07T13:44:00.275Z,2.50
2022-08-07T13:46:41.792Z,2.00
2022-08-07T13:50:33.118Z,1.90
2022-08-07T13:52:32.550Z,1.90
2022-08-07T13:55:00.739Z,2.10
2022-08-07T13:57:32.071Z,2.30
2022-08-07T14:00:08.039Z,2.20
2022-08-07T14:02:50.943Z,2.20
2022-08-07T14:05:37.149Z,2.20
2022-08-07T14:08:06.647Z,1.90
2022-08-07T14:10:42.155Z,2.10
2022-08-07T14:13:14.064Z,2.30
2022-08-07T14:15:50.856Z,2.00
2022-08-07T14:18:34.775Z,2.20
2022-08-07T14:21:20.945Z,2.10
2022-08-07T14:24:08.799Z,2.53
2022-08-07T14:26:50.262Z,2.47
2022-08-07T14:30:05.288Z,2.10
2022-08-07T14:32:12.288Z,2.20
2022-08-07T14:34:45.618Z,1.97
2022-08-07T14:37:16.355Z,2.10
2022-08-07T14:40:17.514Z,2.53
2022-08-07T14:42:35.509Z,2.10
2022-08-07T14:45:25.216Z,2.03
2022-08-07T14:48:19.670Z,2.33
2022-08-07T14:50:56.191Z,1.97
2022-08-07T14:56:29.931Z,2.53
2022-08-07T14:59:01.988Z,2.10
2022-08-07T15:01:42.751Z,2.10
2022-08-07T15:04:18.811Z,2.33
2022-08-07T15:06:47.927Z,2.33
2022-08-07T15:12:10.563Z,2.37
2022-08-07T15:15:07.868Z,2.27
2022-08-07T15:17:55.246Z,2.40
2022-08-07T15:20:54.668Z,2.17
2022-08-07T15:32:02.871Z,2.30
2022-08-07T15:34:57.219Z,2.30
2022-08-07T15:37:29.615Z,2.30
2022-08-07T15:40:33.825Z,2.23
2022-08-07T15:43:11.080Z,2.30
2022-08-07T15:46:04.528Z,2.60
2022-08-07T15:49:11.954Z,2.60
2022-08-07T15:54:16.760Z,2.50
2022-08-07T15:56:46.021Z,2.63
2022-08-07T15:59:17.314Z,2.67
2022-08-07T16:02:01.948Z,2.47
2022-08-07T16:04:33.014Z,2.30
2022-08-07T16:07:04.965Z,2.70
2022-08-07T16:09:56.055Z,2.40
2022-08-07T16:12:33.621Z,3.07
2022-08-07T16:15:54.474Z,2.70
2022-08-07T16:18:50.127Z,2.40
2022-08-07T16:21:44.440Z,2.50
2022-08-07T16:24:52.381Z,2.60
2022-08-07T16:27:41.568Z,2.47
2022-08-07T16:30:31.473Z,2.60
2022-08-07T16:34:01.374Z,2.60
2022-08-07T16:36:20.366Z,3.00
2022-08-07T16:39:33.627Z,2.80
2022-08-07T16:42:27.689Z,2.30
2022-08-07T16:46:40.761Z,2.40
2022-08-07T16:49:10.521Z,2.40
2022-08-07T16:52:01.808Z,2.50
2022-08-07T16:55:03.161Z,2.90
2022-08-07T16:58:03.970Z,2.70
2022-08-07T17:00:44.595Z,2.50
2022-08-07T17:03:17.202Z,2.40
2022-08-07T17:06:31.373Z,2.80
2022-08-07T17:10:06.648Z,2.70
2022-08-07T17:13:04.497Z,2.60
2022-08-07T17:15:56.779Z,2.63
2022-08-07T17:18:57.949Z,3.77
2022-08-07T17:21:51.378Z,2.80
2022-08-07T17:24:23.820Z,2.67
2022-08-07T17:27:08.601Z,3.70
2022-08-07T17:30:14.915Z,3.20
2022-08-07T17:32:57.756Z,2.73
2022-08-07T17:35:55.128Z,3.10
2022-08-07T17:38:50.322Z,2.70
2022-08-07T17:42:03.721Z,2.70
2022-08-07T17:44:50.045Z,2.80
2022-08-07T17:47:54.551Z,2.70
2022-08-07T17:50:47.214Z,2.80
2022-08-07T17:54:00.710Z,2.87
2022-08-07T17:56:32.663Z,2.97
2022-08-07T17:59:35.927Z,2.83
2022-08-07T18:02:17.181Z,3.10
2022-08-07T18:05:23.807Z,2.97
2022-08-07T18:08:17.621Z,3.07
2022-08-07T18:12:17.337Z,3.00
2022-08-07T18:14:37.535Z,2.90
2022-08-07T18:18:47.269Z,3.13
2022-08-07T18:21:03.693Z,3.07
2022-08-07T18:23:43.760Z,2.93
2022-08-07T18:26:23.106Z,2.80
2022-08-07T18:30:06.228Z,2.90
2022-08-07T18:32:23.445Z,3.03
2022-08-07T18:35:17.091Z,3.30
2022-08-07T18:38:55.108Z,3.23
2022-08-07T18:41:45.423Z,3.00
2022-08-07T18:44:31.176Z,3.10
2022-08-07T18:47:21.095Z,3.23
2022-08-07T18:50:31.745Z,3.10
2022-08-07T18:53:12.586Z,3.10
2022-08-07T18:56:02.102Z,3.27
2022-08-07T18:58:33.964Z,3.27
2022-08-07T19:02:17.427Z,3.30
2022-08-07T19:04:39.693Z,3.10
2022-08-07T19:07:21.891Z,3.20
2022-08-07T19:10:18.215Z,3.10
2022-08-07T19:13:11.555Z,3.13
2022-08-07T19:16:05.731Z,3.43
2022-08-07T19:19:14.266Z,3.30
2022-08-07T19:22:04.664Z,3.83
2022-08-07T19:24:44.555Z,3.20
2022-08-07T19:28:58.137Z,3.37
2022-08-07T19:30:55.744Z,3.20
2022-08-07T19:33:01.365Z,3.67
2022-08-07T19:35:37.768Z,3.43
2022-08-07T19:38:16.692Z,3.97
2022-08-07T19:40:50.571Z,4.30
2022-08-07T19:43:48.737Z,6.50
2022-08-07T19:46:26.356Z,6.80
2022-08-07T19:49:00.810Z,6.40
2022-08-07T19:51:52.477Z,4.90
2022-08-07T19:54:33.108Z,4.77
2022-08-07T19:58:03.120Z,5.43
2022-08-07T20:00:02.194Z,5.10
2022-08-07T20:02:34.498Z,5.60
2022-08-07T20:05:07.896Z,4.50
2022-08-07T20:07:47.747Z,4.20
2022-08-07T20:10:37.291Z,4.10
2022-08-07T20:13:23.881Z,4.33
2022-08-07T20:15:57.544Z,3.90
2022-08-07T20:18:32.302Z,3.90
2022-08-07T20:21:02.338Z,3.90
2022-08-07T20:23:41.599Z,4.07
2022-08-07T20:26:11.346Z,3.60
2022-08-07T20:28:44.473Z,3.50
2022-08-07T20:31:21.059Z,3.80
2022-08-07T20:33:57.675Z,4.20
2022-08-07T20:36:28.260Z,3.97
2022-08-07T20:39:00.859Z,4.00
2022-08-07T20:41:37.985Z,3.80
2022-08-07T20:44:10.504Z,3.43
2022-08-07T20:46:44.445Z,3.77
2022-08-07T20:49:59.820Z,3.47
2022-08-07T20:52:06.640Z,3.80
2022-08-07T20:54:41.614Z,3.90
2022-08-07T20:57:12.883Z,3.70
2022-08-07T21:00:06.310Z,3.90
2022-08-07T21:02:54.129Z,3.83
2022-08-07T21:05:25.697Z,3.90
2022-08-07T21:08:33.327Z,3.80
2022-08-07T21:11:10.567Z,3.83
2022-08-07T21:13:43.869Z,3.80
2022-08-07T21:16:30.227Z,3.70
2022-08-07T21:18:59.519Z,4.20
2022-08-07T21:21:33.153Z,4.03
2022-08-07T21:24:41.986Z,3.70
2022-08-07T21:27:47.101Z,3.60
2022-08-07T21:30:17.369Z,3.67
2022-08-07T21:33:14.063Z,3.77
2022-08-07T21:36:05.510Z,3.90
2022-08-07T21:38:55.513Z,3.90
2022-08-07T21:42:00.611Z,3.60
2022-08-07T21:44:40.931Z,3.73
2022-08-07T21:47:12.376Z,4.33
2022-08-07T21:50:02.900Z,3.70
2022-08-07T21:53:08.477Z,3.80
2022-08-07T21:56:05.745Z,3.73
2022-08-07T21:59:05.315Z,3.93
2022-08-07T22:02:11.496Z,4.10
2022-08-07T22:04:52.537Z,4.00
2022-08-07T22:07:31.611Z,4.40
2022-08-07T22:10:05.709Z,3.80
2022-08-07T22:12:44.569Z,4.00
2022-08-07T22:16:42.502Z,3.90
2022-08-07T22:18:07.135Z,4.10
2022-08-07T22:20:54.967Z,3.80
2022-08-07T22:23:40.538Z,4.23
2022-08-07T22:26:44.293Z,4.20
2022-08-07T22:29:17.617Z,3.90
2022-08-07T22:32:20.553Z,4.00
2022-08-07T22:34:56.105Z,4.03
2022-08-07T22:38:03.311Z,4.00
2022-08-07T22:40:19.396Z,4.10
2022-08-07T22:42:49.449Z,3.87
2022-08-07T22:46:04.026Z,3.97
2022-08-07T22:48:55.999Z,4.00
2022-08-07T22:51:52.080Z,3.63
2022-08-07T22:54:33.776Z,4.07
2022-08-07T22:57:03.577Z,4.00
2022-08-07T22:59:53.768Z,3.83
2022-08-07T23:02:23.375Z,3.90
2022-08-07T23:06:06.874Z,4.10
2022-08-07T23:08:37.324Z,3.77
2022-08-07T23:11:48.059Z,3.90
2022-08-07T23:14:41.552Z,3.80
2022-08-07T23:17:41.695Z,3.80
2022-08-07T23:20:40.631Z,4.17
2022-08-07T23:24:06.184Z,3.97
2022-08-07T23:26:23.553Z,3.80
2022-08-07T23:29:43.597Z,4.10
2022-08-07T23:34:23.958Z,3.80
2022-08-07T23:35:23.922Z,3.80
2022-08-07T23:38:36.276Z,3.90
2022-08-07T23:41:33.668Z,4.10
2022-08-07T23:44:30.345Z,3.87
2022-08-07T23:47:22.589Z,4.00
2022-08-07T23:50:07.211Z,3.87
2022-08-07T23:52:58.787Z,3.77
2022-08-07T23:56:03.929Z,3.90
2022-08-07T23:58:50.650Z,3.90
